createdAt,value
2019-04-27T00:00:49.564Z,3.97
2019-04-27T00:03:23.419Z,3.70
2019-04-27T00:06:05.339Z,3.33
2019-04-27T00:08:38.741Z,3.55
2019-04-27T00:11:33.076Z,3.40
2019-04-27T00:14:03.800Z,3.50
2019-04-27T00:16:51.615Z,3.13
2019-04-27T00:19:31.780Z,3.43
2019-04-27T00:22:10.727Z,2.98
2019-04-27T00:24:40.459Z,3.27
2019-04-27T00:27:10.176Z,3.10
2019-04-27T00:29:39.924Z,3.63
2019-04-27T00:32:10.244Z,3.10
2019-04-27T00:34:40.009Z,3.30
2019-04-27T00:37:18.807Z,3.03
2019-04-27T00:40:07.877Z,3.43
2019-04-27T00:42:37.571Z,3.37
2019-04-27T00:45:07.446Z,3.22
2019-04-27T00:47:38.235Z,3.50
2019-04-27T00:50:08.236Z,2.73
2019-04-27T00:52:38.032Z,3.50
2019-04-27T00:55:07.886Z,2.87
2019-04-27T00:57:45.004Z,3.37
2019-04-27T01:00:30.074Z,3.50
2019-04-27T01:03:03.829Z,3.27
2019-04-27T01:05:33.858Z,3.13
2019-04-27T01:08:03.966Z,3.10
2019-04-27T01:10:33.672Z,2.70
2019-04-27T01:13:03.539Z,2.90
2019-04-27T01:15:34.120Z,2.77
2019-04-27T01:18:11.919Z,2.17
2019-04-27T01:20:36.476Z,2.87
2019-04-27T01:23:11.013Z,2.50
2019-04-27T01:25:55.613Z,2.70
2019-04-27T01:28:30.268Z,3.07
2019-04-27T01:31:05.000Z,2.70
2019-04-27T01:33:34.687Z,2.60
2019-04-27T01:36:04.411Z,3.30
2019-04-27T01:38:34.041Z,2.77
2019-04-27T01:41:04.044Z,2.40
2019-04-27T01:43:34.202Z,2.50
2019-04-27T01:46:04.245Z,2.53
2019-04-27T01:48:35.008Z,2.60
2019-04-27T01:51:04.836Z,2.50
2019-04-27T01:53:34.582Z,2.30
2019-04-27T01:56:05.640Z,2.63
2019-04-27T01:58:35.384Z,2.03
2019-04-27T02:01:25.551Z,2.07
2019-04-27T02:04:13.847Z,2.17
2019-04-27T02:06:44.589Z,1.97
2019-04-27T02:09:18.788Z,1.80
2019-04-27T02:11:49.016Z,1.93
2019-04-27T02:14:19.637Z,2.17
2019-04-27T02:16:49.434Z,2.00
2019-04-27T02:19:19.499Z,1.47
2019-04-27T02:21:51.468Z,1.80
2019-04-27T02:24:20.782Z,1.63
2019-04-27T02:26:51.073Z,1.77
2019-04-27T02:29:45.874Z,1.70
2019-04-27T02:32:39.790Z,1.85
2019-04-27T02:35:12.663Z,1.70
2019-04-27T02:37:42.903Z,1.93
2019-04-27T02:40:52.676Z,2.17
2019-04-27T02:43:30.958Z,2.00
2019-04-27T02:46:00.805Z,1.80
2019-04-27T02:48:30.571Z,1.57
2019-04-27T02:51:03.645Z,1.63
2019-04-27T02:53:51.428Z,2.03
2019-04-27T02:56:21.176Z,1.50
2019-04-27T02:58:52.075Z,1.90
2019-04-27T03:01:23.448Z,1.77
2019-04-27T03:03:53.321Z,1.90
2019-04-27T03:06:23.230Z,1.70
2019-04-27T03:08:54.315Z,2.00
2019-04-27T03:11:25.299Z,1.60
2019-04-27T03:14:28.242Z,1.53
2019-04-27T03:17:22.549Z,1.67
2019-04-27T03:19:59.532Z,1.52
2019-04-27T03:22:36.641Z,1.70
2019-04-27T03:25:31.890Z,1.83
2019-04-27T03:28:10.744Z,1.60
2019-04-27T03:30:42.667Z,1.60
2019-04-27T03:33:13.433Z,1.60
2019-04-27T03:35:44.037Z,1.13
2019-04-27T03:38:13.936Z,1.62
2019-04-27T03:40:43.899Z,1.57
2019-04-27T03:43:22.367Z,1.50
2019-04-27T03:45:52.708Z,1.37
2019-04-27T03:48:29.065Z,1.50
2019-04-27T03:51:09.701Z,1.50
2019-04-27T03:53:49.714Z,1.57
2019-04-27T03:56:32.309Z,1.60
2019-04-27T03:59:05.264Z,1.50
2019-04-27T04:01:39.610Z,1.67
2019-04-27T04:04:10.577Z,1.50
2019-04-27T04:06:43.624Z,1.80
2019-04-27T04:09:13.616Z,1.20
2019-04-27T04:12:09.599Z,1.70
2019-04-27T04:14:42.502Z,1.25
2019-04-27T04:17:14.413Z,1.37
2019-04-27T04:19:54.497Z,1.30
2019-04-27T04:22:15.786Z,1.33
2019-04-27T04:24:45.501Z,1.32
2019-04-27T04:27:16.377Z,1.20
2019-04-27T04:29:49.208Z,1.47
2019-04-27T04:32:19.356Z,1.50
2019-04-27T04:34:50.414Z,1.47
2019-04-27T04:37:20.212Z,1.60
2019-04-27T04:39:53.502Z,1.40
2019-04-27T04:42:34.199Z,1.60
2019-04-27T04:45:26.783Z,1.60
2019-04-27T04:48:02.563Z,1.63
2019-04-27T04:50:32.361Z,1.80
2019-04-27T04:53:02.182Z,1.27
2019-04-27T04:55:31.943Z,1.40
2019-04-27T04:58:02.711Z,1.90
2019-04-27T05:00:32.506Z,1.30
2019-04-27T05:03:02.272Z,1.65
2019-04-27T05:05:32.024Z,1.50
2019-04-27T05:08:01.984Z,1.40
2019-04-27T05:10:32.830Z,1.57
2019-04-27T05:13:02.582Z,1.30
2019-04-27T05:15:32.301Z,1.40
2019-04-27T05:18:01.909Z,1.37
2019-04-27T05:20:53.532Z,1.27
2019-04-27T05:23:23.125Z,1.63
2019-04-27T05:25:52.807Z,1.40
2019-04-27T05:28:22.670Z,1.10
2019-04-27T05:30:52.437Z,1.20
2019-04-27T05:33:22.161Z,1.50
2019-04-27T05:35:51.836Z,1.50
2019-04-27T05:38:21.606Z,1.40
2019-04-27T05:40:51.944Z,1.13
2019-04-27T05:43:25.606Z,1.45
2019-04-27T05:46:36.758Z,1.33
2019-04-27T05:49:09.551Z,1.40
2019-04-27T05:51:40.522Z,1.45
2019-04-27T05:54:10.925Z,1.33
2019-04-27T05:56:41.022Z,1.33
2019-04-27T05:59:14.624Z,1.30
2019-04-27T06:01:44.207Z,1.50
2019-04-27T06:04:13.948Z,1.27
2019-04-27T06:06:43.755Z,1.30
2019-04-27T06:09:13.490Z,1.60
2019-04-27T06:11:43.239Z,1.53
2019-04-27T06:14:13.705Z,1.57
2019-04-27T06:16:43.491Z,1.43
2019-04-27T06:19:13.302Z,2.40
2019-04-27T06:21:42.951Z,1.90
2019-04-27T06:24:12.682Z,1.60
2019-04-27T06:26:42.335Z,1.80
2019-04-27T06:29:12.003Z,1.83
2019-04-27T06:31:41.933Z,1.80
2019-04-27T06:34:11.699Z,2.12
2019-04-27T06:36:41.453Z,1.73
2019-04-27T06:39:11.309Z,2.20
2019-04-27T06:41:41.095Z,1.80
2019-04-27T06:44:11.587Z,2.17
2019-04-27T06:46:41.277Z,2.07
2019-04-27T06:49:11.360Z,2.77
2019-04-27T06:51:41.376Z,1.82
2019-04-27T06:54:11.027Z,2.27
2019-04-27T06:56:40.814Z,2.27
2019-04-27T06:59:10.530Z,2.20
2019-04-27T07:01:40.964Z,2.30
2019-04-27T07:04:11.094Z,2.20
2019-04-27T07:06:53.329Z,1.90
2019-04-27T07:09:13.238Z,2.92
2019-04-27T07:11:43.070Z,2.60
2019-04-27T07:14:12.792Z,2.50
2019-04-27T07:16:42.785Z,2.40
2019-04-27T07:19:12.620Z,2.37
2019-04-27T07:21:42.307Z,2.40
2019-04-27T07:24:12.074Z,2.37
2019-04-27T07:26:42.112Z,2.57
2019-04-27T07:29:11.790Z,2.50
2019-04-27T07:31:41.675Z,2.95
2019-04-27T07:34:11.394Z,2.90
2019-04-27T07:36:41.159Z,3.57
2019-04-27T07:39:11.618Z,2.90
2019-04-27T07:41:41.323Z,2.97
2019-04-27T07:44:16.439Z,3.90
2019-04-27T07:47:05.157Z,3.00
2019-04-27T07:49:34.856Z,3.30
2019-04-27T07:52:04.830Z,3.33
2019-04-27T07:54:34.597Z,3.37
2019-04-27T07:57:04.242Z,3.00
2019-04-27T07:59:34.130Z,3.20
2019-04-27T08:02:04.266Z,2.93
2019-04-27T08:04:34.054Z,3.43
2019-04-27T08:07:03.796Z,2.93
2019-04-27T08:09:33.643Z,2.90
2019-04-27T08:12:03.426Z,3.10
2019-04-27T08:14:33.324Z,3.43
2019-04-27T08:17:03.120Z,3.20
2019-04-27T08:19:32.932Z,2.90
2019-04-27T08:22:02.651Z,3.17
2019-04-27T08:24:32.573Z,2.60
2019-04-27T08:27:19.336Z,2.83
2019-04-27T08:30:07.157Z,2.97
2019-04-27T08:32:41.524Z,2.63
2019-04-27T08:35:13.872Z,2.77
2019-04-27T08:37:43.785Z,3.20
2019-04-27T08:40:14.927Z,2.40
2019-04-27T08:42:44.654Z,2.83
2019-04-27T08:45:14.649Z,2.67
2019-04-27T08:47:44.450Z,3.30
2019-04-27T08:50:14.401Z,2.70
2019-04-27T08:52:44.266Z,2.98
2019-04-27T08:55:14.581Z,2.90
2019-04-27T08:57:44.861Z,2.60
2019-04-27T09:00:15.659Z,3.00
2019-04-27T09:02:47.385Z,3.00
2019-04-27T09:05:19.366Z,2.22
2019-04-27T09:08:03.026Z,2.83
2019-04-27T09:10:46.570Z,2.53
2019-04-27T09:13:39.387Z,2.90
2019-04-27T09:16:43.161Z,2.40
2019-04-27T09:19:29.166Z,2.33
2019-04-27T09:22:15.283Z,2.90
2019-04-27T09:24:35.981Z,3.07
2019-04-27T09:27:06.264Z,2.90
2019-04-27T09:29:36.073Z,2.90
2019-04-27T09:32:08.887Z,2.67
2019-04-27T09:34:38.882Z,2.77
2019-04-27T09:37:08.688Z,2.63
2019-04-27T09:39:38.558Z,2.90
2019-04-27T09:42:09.281Z,2.80
2019-04-27T09:44:39.065Z,2.97
2019-04-27T09:47:08.834Z,3.00
2019-04-27T09:49:39.493Z,2.90
2019-04-27T09:52:09.272Z,2.80
2019-04-27T09:54:39.985Z,12.40
2019-04-27T09:57:09.702Z,5.37
2019-04-27T09:59:39.843Z,2.50
2019-04-27T10:02:10.601Z,2.90
2019-04-27T10:04:40.418Z,3.30
2019-04-27T10:07:10.119Z,4.23
2019-04-27T10:09:39.971Z,3.40
2019-04-27T10:12:11.430Z,2.80
2019-04-27T10:14:41.178Z,3.33
2019-04-27T10:17:16.706Z,2.95
2019-04-27T10:19:46.496Z,2.93
2019-04-27T10:22:17.325Z,2.58
2019-04-27T10:24:47.033Z,3.03
2019-04-27T10:27:16.857Z,2.40
2019-04-27T10:29:46.894Z,2.20
2019-04-27T10:32:16.839Z,2.40
2019-04-27T10:34:46.616Z,2.10
2019-04-27T10:37:16.411Z,1.93
2019-04-27T10:39:46.212Z,2.10
2019-04-27T10:42:15.844Z,2.03
2019-04-27T10:44:46.365Z,2.10
2019-04-27T10:47:16.841Z,1.87
2019-04-27T10:49:48.384Z,2.37
2019-04-27T10:52:17.896Z,2.17
2019-04-27T10:54:47.891Z,1.20
2019-04-27T10:57:17.775Z,1.20
2019-04-27T10:59:48.572Z,1.30
2019-04-27T11:02:18.442Z,1.10
2019-04-27T11:04:56.458Z,1.60
2019-04-27T11:07:36.181Z,1.32
2019-04-27T11:10:07.593Z,1.60
2019-04-27T11:12:38.529Z,1.90
2019-04-27T11:15:08.974Z,1.40
2019-04-27T11:17:38.879Z,1.93
2019-04-27T11:20:09.087Z,1.90
2019-04-27T11:22:38.907Z,1.80
2019-04-27T11:25:09.091Z,1.70
2019-04-27T11:27:38.865Z,1.67
2019-04-27T11:30:09.991Z,1.87
2019-04-27T11:32:39.946Z,2.07
2019-04-27T11:35:31.863Z,1.80
2019-04-27T11:38:01.587Z,1.87
2019-04-27T11:40:31.306Z,2.37
2019-04-27T11:43:01.268Z,2.43
2019-04-27T11:45:31.295Z,2.03
2019-04-27T11:48:01.131Z,2.00
2019-04-27T11:50:32.126Z,2.00
2019-04-27T11:53:02.166Z,2.37
2019-04-27T11:55:31.902Z,2.47
2019-04-27T11:58:02.098Z,1.90
2019-04-27T12:00:33.661Z,2.03
2019-04-27T12:03:04.371Z,1.90
2019-04-27T12:05:36.128Z,2.20
2019-04-27T12:08:06.379Z,1.90
2019-04-27T12:10:36.378Z,2.12
2019-04-27T12:13:07.605Z,2.10
2019-04-27T12:15:38.235Z,2.17
2019-04-27T12:18:09.106Z,2.50
2019-04-27T12:20:39.159Z,2.00
2019-04-27T12:23:11.473Z,2.40
2019-04-27T12:25:41.186Z,2.40
2019-04-27T12:28:19.790Z,1.80
2019-04-27T12:31:17.665Z,1.77
2019-04-27T12:33:47.432Z,1.50
2019-04-27T12:36:17.957Z,2.10
2019-04-27T12:38:47.685Z,1.83
2019-04-27T12:41:18.192Z,2.37
2019-04-27T12:43:48.076Z,1.57
2019-04-27T12:46:17.741Z,1.80
2019-04-27T12:48:48.156Z,1.32
2019-04-27T12:51:20.837Z,2.00
2019-04-27T12:54:02.927Z,1.80
2019-04-27T12:57:10.028Z,1.67
2019-04-27T12:59:57.483Z,2.50
2019-04-27T13:02:30.596Z,2.05
2019-04-27T13:05:00.525Z,2.37
2019-04-27T13:07:30.255Z,1.55
2019-04-27T13:09:59.941Z,1.60
2019-04-27T13:12:29.687Z,1.93
2019-04-27T13:14:59.603Z,1.70
2019-04-27T13:17:29.386Z,1.63
2019-04-27T13:19:59.142Z,1.82
2019-04-27T13:22:28.877Z,1.83
2019-04-27T13:24:58.714Z,1.70
2019-04-27T13:27:28.510Z,1.43
2019-04-27T13:29:58.383Z,1.70
2019-04-27T13:32:28.140Z,1.23
2019-04-27T13:34:58.172Z,2.30
2019-04-27T13:37:41.740Z,1.50
2019-04-27T13:40:13.042Z,1.70
2019-04-27T13:43:09.747Z,1.73
2019-04-27T13:46:01.644Z,1.80
2019-04-27T13:48:51.469Z,1.73
2019-04-27T13:51:39.160Z,1.53
2019-04-27T13:54:18.857Z,1.57
2019-04-27T13:56:41.438Z,1.60
2019-04-27T13:59:12.806Z,1.35
2019-04-27T14:01:42.541Z,1.67
2019-04-27T14:04:13.949Z,1.53
2019-04-27T14:06:43.924Z,1.43
2019-04-27T14:09:13.827Z,2.03
2019-04-27T14:11:43.589Z,1.40
2019-04-27T14:14:13.352Z,1.20
2019-04-27T14:16:43.941Z,1.40
2019-04-27T14:19:13.825Z,1.50
2019-04-27T14:21:44.399Z,2.10
2019-04-27T14:24:27.571Z,1.90
2019-04-27T14:26:48.597Z,1.70
2019-04-27T14:29:18.920Z,1.70
2019-04-27T14:31:49.819Z,1.60
2019-04-27T14:34:21.678Z,1.30
2019-04-27T14:36:51.527Z,1.83
2019-04-27T14:39:21.415Z,1.40
2019-04-27T14:41:51.300Z,1.73
2019-04-27T14:44:21.058Z,1.40
2019-04-27T14:46:50.807Z,1.40
2019-04-27T14:49:20.539Z,1.90
2019-04-27T14:51:50.541Z,1.20
2019-04-27T14:54:20.376Z,1.73
2019-04-27T14:56:51.393Z,1.60
2019-04-27T14:59:21.263Z,1.80
2019-04-27T15:01:50.964Z,1.47
2019-04-27T15:04:20.673Z,1.67
2019-04-27T15:06:50.690Z,1.80
2019-04-27T15:09:21.098Z,1.70
2019-04-27T15:11:53.501Z,2.00
2019-04-27T15:14:23.765Z,1.93
2019-04-27T15:16:53.605Z,2.17
2019-04-27T15:19:29.061Z,2.27
2019-04-27T15:22:01.120Z,2.23
2019-04-27T15:24:31.201Z,1.70
2019-04-27T15:27:02.329Z,1.60
2019-04-27T15:29:33.050Z,1.90
2019-04-27T15:32:04.814Z,1.62
2019-04-27T15:35:21.621Z,1.42
2019-04-27T15:37:55.835Z,5.30
2019-04-27T15:40:44.062Z,2.02
2019-04-27T15:43:30.878Z,1.53
2019-04-27T15:46:00.276Z,0.93
2019-04-27T15:48:33.888Z,1.30
2019-04-27T15:51:05.121Z,1.23
2019-04-27T15:53:33.323Z,0.57
2019-04-27T15:56:03.135Z,1.20
2019-04-27T15:58:32.845Z,1.27
2019-04-27T16:01:06.067Z,1.10
2019-04-27T16:03:34.581Z,1.20
2019-04-27T16:06:08.189Z,1.05
2019-04-27T16:08:39.833Z,1.43
2019-04-27T16:11:09.941Z,1.30
2019-04-27T16:13:40.128Z,0.90
2019-04-27T16:16:10.958Z,0.80
2019-04-27T16:18:40.819Z,1.10
2019-04-27T16:21:11.040Z,1.93
2019-04-27T16:23:43.804Z,1.36
2019-04-27T16:26:15.689Z,1.40
2019-04-27T16:28:52.866Z,1.47
2019-04-27T16:31:20.422Z,1.00
2019-04-27T16:33:53.992Z,1.30
2019-04-27T16:36:22.080Z,1.60
2019-04-27T16:38:59.154Z,2.33
2019-04-27T16:41:28.870Z,1.50
2019-04-27T16:44:02.355Z,1.37
2019-04-27T16:46:35.021Z,2.60
2019-04-27T16:49:07.506Z,1.90
2019-04-27T16:51:40.200Z,1.60
2019-04-27T16:54:17.700Z,1.70
2019-04-27T16:56:45.774Z,1.43
2019-04-27T16:59:38.764Z,1.53
2019-04-27T17:01:47.794Z,1.45
2019-04-27T17:04:17.587Z,1.80
2019-04-27T17:06:49.387Z,1.83
2019-04-27T17:09:19.151Z,1.90
2019-04-27T17:11:50.284Z,1.50
2019-04-27T17:14:34.426Z,1.70
2019-04-27T17:17:20.045Z,1.57
2019-04-27T17:19:52.934Z,2.00
2019-04-27T17:22:22.766Z,1.60
2019-04-27T17:24:52.618Z,2.07
2019-04-27T17:27:31.832Z,2.73
2019-04-27T17:30:02.717Z,2.20
2019-04-27T17:32:48.702Z,2.27
2019-04-27T17:35:18.401Z,2.22
2019-04-27T17:37:48.866Z,1.87
2019-04-27T17:40:19.606Z,2.10
2019-04-27T17:42:50.793Z,2.10
2019-04-27T17:45:21.693Z,2.45
2019-04-27T17:47:51.523Z,2.60
2019-04-27T17:50:24.928Z,3.13
2019-04-27T17:52:54.869Z,2.10
2019-04-27T17:55:25.469Z,2.87
2019-04-27T17:58:00.539Z,2.80
2019-04-27T18:00:28.104Z,3.10
2019-04-27T18:02:58.084Z,3.47
2019-04-27T18:05:28.502Z,3.37
2019-04-27T18:08:00.055Z,3.23
2019-04-27T18:10:29.836Z,4.50
2019-04-27T18:13:01.700Z,3.20
2019-04-27T18:15:32.623Z,4.00
2019-04-27T18:18:09.107Z,3.97
2019-04-27T18:20:45.258Z,4.35
2019-04-27T18:23:18.505Z,4.47
2019-04-27T18:25:54.440Z,4.83
2019-04-27T18:28:28.381Z,5.03
2019-04-27T18:31:06.327Z,3.23
2019-04-27T18:33:38.335Z,2.63
2019-04-27T18:36:13.698Z,2.60
2019-04-27T18:38:39.979Z,2.60
2019-04-27T18:41:11.763Z,2.20
2019-04-27T18:43:46.586Z,2.50
2019-04-27T18:46:14.923Z,1.98
2019-04-27T18:49:09.050Z,2.60
2019-04-27T18:52:04.273Z,2.50
2019-04-27T18:54:33.140Z,1.93
2019-04-27T18:57:04.803Z,2.17
2019-04-27T18:59:32.221Z,2.70
2019-04-27T19:02:02.104Z,2.22
2019-04-27T19:04:32.016Z,2.17
2019-04-27T19:07:02.942Z,2.02
2019-04-27T19:09:32.699Z,2.47
2019-04-27T19:12:03.221Z,3.17
2019-04-27T19:14:35.611Z,2.73
2019-04-27T19:17:06.594Z,2.93
2019-04-27T19:19:36.388Z,2.87
2019-04-27T19:22:08.808Z,3.37
2019-04-27T19:24:41.465Z,3.03
2019-04-27T19:27:29.808Z,3.47
2019-04-27T19:30:02.238Z,3.23
2019-04-27T19:32:32.091Z,3.50
2019-04-27T19:35:02.358Z,2.60
2019-04-27T19:37:32.200Z,3.83
2019-04-27T19:40:02.288Z,3.20
2019-04-27T19:42:33.514Z,3.10
2019-04-27T19:45:03.206Z,3.23
2019-04-27T19:47:34.932Z,3.77
2019-04-27T19:50:05.827Z,3.27
2019-04-27T19:52:39.494Z,3.40
2019-04-27T19:55:11.978Z,4.00
2019-04-27T19:57:42.170Z,3.30
2019-04-27T20:00:23.994Z,4.00
2019-04-27T20:02:53.821Z,3.80
2019-04-27T20:05:23.527Z,3.43
2019-04-27T20:07:54.105Z,4.08
2019-04-27T20:10:23.880Z,4.00
2019-04-27T20:12:53.697Z,4.23
2019-04-27T20:15:24.681Z,3.80
2019-04-27T20:17:54.774Z,4.47
2019-04-27T20:20:24.656Z,4.03
2019-04-27T20:22:54.546Z,4.80
2019-04-27T20:25:31.306Z,4.33
2019-04-27T20:28:01.064Z,4.30
2019-04-27T20:30:31.593Z,5.37
2019-04-27T20:33:01.434Z,4.33
2019-04-27T20:35:31.175Z,4.53
2019-04-27T20:38:01.008Z,3.80
2019-04-27T20:40:32.125Z,3.87
2019-04-27T20:43:02.487Z,5.22
2019-04-27T20:45:32.760Z,5.13
2019-04-27T20:48:02.635Z,4.70
2019-04-27T20:50:32.895Z,4.60
2019-04-27T20:53:05.982Z,4.73
2019-04-27T20:55:35.808Z,4.97
2019-04-27T20:58:05.941Z,4.53
2019-04-27T21:00:35.753Z,4.70
2019-04-27T21:03:24.640Z,4.03
2019-04-27T21:06:07.060Z,5.65
2019-04-27T21:08:38.192Z,4.97
2019-04-27T21:11:08.090Z,4.67
2019-04-27T21:13:37.965Z,5.37
2019-04-27T21:16:07.897Z,4.80
2019-04-27T21:18:37.669Z,4.60
2019-04-27T21:21:07.359Z,4.87
2019-04-27T21:23:37.207Z,5.15
2019-04-27T21:26:06.972Z,4.57
2019-04-27T21:28:36.699Z,4.83
2019-04-27T21:31:06.404Z,4.40
2019-04-27T21:33:37.078Z,4.23
2019-04-27T21:36:06.889Z,4.50
2019-04-27T21:38:36.671Z,4.10
2019-04-27T21:41:06.720Z,4.53
2019-04-27T21:43:36.483Z,4.13
2019-04-27T21:46:06.338Z,4.40
2019-04-27T21:48:36.072Z,4.70
2019-04-27T21:51:05.867Z,3.83
2019-04-27T21:53:41.262Z,4.00
2019-04-27T21:56:11.858Z,4.23
2019-04-27T21:58:42.106Z,4.20
2019-04-27T22:01:21.643Z,3.97
2019-04-27T22:03:52.790Z,4.23
2019-04-27T22:06:23.610Z,4.30
2019-04-27T22:08:53.315Z,4.58
2019-04-27T22:11:23.226Z,4.23
2019-04-27T22:13:54.052Z,4.62
2019-04-27T22:16:23.903Z,4.73
2019-04-27T22:18:53.669Z,4.53
2019-04-27T22:21:23.412Z,3.93
2019-04-27T22:24:21.341Z,4.23
2019-04-27T22:26:51.798Z,3.50
2019-04-27T22:29:22.160Z,4.37
2019-04-27T22:31:52.862Z,4.10
2019-04-27T22:34:22.847Z,4.37
2019-04-27T22:36:52.697Z,4.30
2019-04-27T22:39:34.812Z,4.10
2019-04-27T22:42:23.231Z,4.10
2019-04-27T22:45:01.164Z,3.43
2019-04-27T22:47:31.944Z,4.27
2019-04-27T22:50:01.886Z,3.83
2019-04-27T22:52:31.739Z,4.13
2019-04-27T22:55:01.771Z,3.60
2019-04-27T22:57:37.906Z,4.28
2019-04-27T23:00:41.926Z,3.63
2019-04-27T23:03:17.355Z,3.53
2019-04-27T23:05:47.086Z,4.30
2019-04-27T23:08:16.789Z,4.03
2019-04-27T23:10:48.367Z,4.50
2019-04-27T23:13:18.094Z,3.30
2019-04-27T23:15:51.277Z,3.80
2019-04-27T23:18:22.669Z,3.62
2019-04-27T23:20:52.381Z,3.97
2019-04-27T23:23:22.114Z,4.07
2019-04-27T23:25:51.771Z,3.47
2019-04-27T23:28:22.618Z,2.90
2019-04-27T23:31:11.386Z,3.60
2019-04-27T23:33:43.551Z,3.70
2019-04-27T23:36:13.294Z,4.70
2019-04-27T23:38:43.184Z,3.97
2019-04-27T23:41:13.066Z,3.30
2019-04-27T23:43:42.943Z,3.13
2019-04-27T23:46:12.707Z,3.30
2019-04-27T23:48:42.405Z,3.40
2019-04-27T23:51:25.015Z,3.60
2019-04-27T23:53:54.964Z,3.70
2019-04-27T23:56:24.986Z,3.60
2019-04-27T23:58:54.872Z,3.90
